sensor_id;sensor_type;location;lat;lon;timestamp;pressure;altitude;pressure_sealevel;temperature;humidity
77739;BME280;66904;59.926;30.404;2023-04-25T00:00:12;100734.75;;;27.15;34.84
77739;BME280;66904;59.926;30.404;2023-04-25T00:05:13;100725.75;;;27.15;34.70
77739;BME280;66904;59.926;30.404;2023-04-25T00:10:15;100720.78;;;27.12;34.31
77739;BME280;66904;59.926;30.404;2023-04-25T00:15:16;100717.47;;;27.10;34.58
77739;BME280;66904;59.926;30.404;2023-04-25T00:20:18;100719.94;;;27.11;34.55
77739;BME280;66904;59.926;30.404;2023-04-25T00:25:18;100712.88;;;27.10;34.59
77739;BME280;66904;59.926;30.404;2023-04-25T00:30:19;100712.88;;;27.10;34.69
77739;BME280;66904;59.926;30.404;2023-04-25T00:35:20;100714.50;;;27.11;34.46
77739;BME280;66904;59.926;30.404;2023-04-25T00:40:21;100714.50;;;27.11;34.08
77739;BME280;66904;59.926;30.404;2023-04-25T00:45:27;100707.66;;;27.09;34.05
77739;BME280;66904;59.926;30.404;2023-04-25T00:50:27;100716.41;;;27.11;34.47
77739;BME280;66904;59.926;30.404;2023-04-25T00:55:28;100719.34;;;27.09;34.57
77739;BME280;66904;59.926;30.404;2023-04-25T01:00:29;100716.84;;;27.08;34.47
77739;BME280;66904;59.926;30.404;2023-04-25T01:05:30;100725.22;;;27.06;34.38
77739;BME280;66904;59.926;30.404;2023-04-25T01:10:30;100722.06;;;27.09;34.17
77739;BME280;66904;59.926;30.404;2023-04-25T01:15:31;100720.38;;;27.08;34.10
77739;BME280;66904;59.926;30.404;2023-04-25T01:20:33;100724.97;;;27.08;34.36
77739;BME280;66904;59.926;30.404;2023-04-25T01:25:34;100717.28;;;27.05;33.92
77739;BME280;66904;59.926;30.404;2023-04-25T01:30:35;100700.66;;;26.95;34.29
77739;BME280;66904;59.926;30.404;2023-04-25T01:35:36;100716.84;;;27.08;34.28
77739;BME280;66904;59.926;30.404;2023-04-25T01:40:38;100727.69;;;27.08;33.88
77739;BME280;66904;59.926;30.404;2023-04-25T01:45:43;100724.78;;;27.09;34.11
77739;BME280;66904;59.926;30.404;2023-04-25T01:50:44;100718.50;;;27.09;34.14
77739;BME280;66904;59.926;30.404;2023-04-25T01:55:45;100714.97;;;27.08;33.72
77739;BME280;66904;59.926;30.404;2023-04-25T02:00:46;100715.19;;;27.07;33.73
77739;BME280;66904;59.926;30.404;2023-04-25T02:05:46;100707.09;;;27.00;33.83
77739;BME280;66904;59.926;30.404;2023-04-25T02:10:47;100723.09;;;27.08;33.95
77739;BME280;66904;59.926;30.404;2023-04-25T02:15:48;100700.00;;;26.99;34.19
77739;BME280;66904;59.926;30.404;2023-04-25T02:20:48;100722.06;;;27.09;34.04
77739;BME280;66904;59.926;30.404;2023-04-25T02:25:49;100709.75;;;27.07;33.41
77739;BME280;66904;59.926;30.404;2023-04-25T02:30:50;100718.34;;;27.04;33.46
77739;BME280;66904;59.926;30.404;2023-04-25T02:35:50;100725.66;;;27.03;33.86
77739;BME280;66904;59.926;30.404;2023-04-25T02:40:51;100725.66;;;27.03;33.63
77739;BME280;66904;59.926;30.404;2023-04-25T02:45:51;100718.56;;;27.02;33.78
77739;BME280;66904;59.926;30.404;2023-04-25T02:50:52;100715.25;;;27.00;33.47
77739;BME280;66904;59.926;30.404;2023-04-25T02:55:53;100710.41;;;27.02;32.96
77739;BME280;66904;59.926;30.404;2023-04-25T03:00:53;100707.94;;;27.01;33.35
77739;BME280;66904;59.926;30.404;2023-04-25T03:05:54;100711.91;;;26.98;33.66
77739;BME280;66904;59.926;30.404;2023-04-25T03:10:55;100710.84;;;26.99;33.01
77739;BME280;66904;59.926;30.404;2023-04-25T03:15:55;100721.97;;;26.98;33.34
77739;BME280;66904;59.926;30.404;2023-04-25T03:20:56;100717.56;;;26.97;33.39
77739;BME280;66904;59.926;30.404;2023-04-25T03:25:56;100724.88;;;26.96;33.14
77739;BME280;66904;59.926;30.404;2023-04-25T03:30:57;100705.13;;;26.83;33.19
77739;BME280;66904;59.926;30.404;2023-04-25T03:35:57;100719.28;;;26.91;33.24
77739;BME280;66904;59.926;30.404;2023-04-25T03:40:58;100717.63;;;26.90;33.17
77739;BME280;66904;59.926;30.404;2023-04-25T03:45:59;100729.72;;;26.94;32.88
77739;BME280;66904;59.926;30.404;2023-04-25T03:50:59;100733.22;;;26.95;33.15
77739;BME280;66904;59.926;30.404;2023-04-25T03:56:00;100736.78;;;26.95;32.79
77739;BME280;66904;59.926;30.404;2023-04-25T04:01:00;100732.63;;;26.93;32.90
77739;BME280;66904;59.926;30.404;2023-04-25T04:06:04;100740.78;;;26.93;32.42
77739;BME280;66904;59.926;30.404;2023-04-25T04:11:05;100732.88;;;26.91;32.57
77739;BME280;66904;59.926;30.404;2023-04-25T04:16:06;100730.16;;;26.91;32.99
77739;BME280;66904;59.926;30.404;2023-04-25T04:21:07;100738.31;;;26.91;33.18
77739;BME280;66904;59.926;30.404;2023-04-25T04:26:07;100733.69;;;26.92;32.68
77739;BME280;66904;59.926;30.404;2023-04-25T04:31:08;100733.63;;;26.98;33.51
77739;BME280;66904;59.926;30.404;2023-04-25T04:36:09;100719.91;;;26.93;33.71
77739;BME280;66904;59.926;30.404;2023-04-25T04:41:10;100738.81;;;27.06;33.55
77739;BME280;66904;59.926;30.404;2023-04-25T04:46:10;100728.78;;;27.07;33.25
77739;BME280;66904;59.926;30.404;2023-04-25T04:51:12;100746.25;;;27.17;33.35
77739;BME280;66904;59.926;30.404;2023-04-25T04:56:13;100735.81;;;27.14;32.81
77739;BME280;66904;59.926;30.404;2023-04-25T05:01:13;100732.03;;;27.15;32.81
77739;BME280;66904;59.926;30.404;2023-04-25T05:06:17;100734.16;;;27.13;33.13
77739;BME280;66904;59.926;30.404;2023-04-25T05:11:18;100736.03;;;27.13;32.56
77739;BME280;66904;59.926;30.404;2023-04-25T05:16:19;100747.50;;;27.15;32.54
77739;BME280;66904;59.926;30.404;2023-04-25T05:21:20;100740.03;;;27.10;32.57
77739;BME280;66904;59.926;30.404;2023-04-25T05:26:21;100747.94;;;27.12;32.65
77739;BME280;66904;59.926;30.404;2023-04-25T05:31:22;100735.44;;;27.11;32.03
77739;BME280;66904;59.926;30.404;2023-04-25T05:36:22;100738.34;;;27.09;32.19
77739;BME280;66904;59.926;30.404;2023-04-25T05:41:23;100733.75;;;27.10;32.28
77739;BME280;66904;59.926;30.404;2023-04-25T05:46:23;100740.47;;;27.07;32.40
77739;BME280;66904;59.926;30.404;2023-04-25T05:51:24;100736.91;;;27.07;32.08
77739;BME280;66904;59.926;30.404;2023-04-25T05:56:24;100732.78;;;27.04;32.00
77739;BME280;66904;59.926;30.404;2023-04-25T06:01:25;100733.38;;;27.06;31.66
77739;BME280;66904;59.926;30.404;2023-04-25T06:06:25;100731.25;;;27.08;31.46
77739;BME280;66904;59.926;30.404;2023-04-25T06:11:27;100724.38;;;27.06;31.68
77739;BME280;66904;59.926;30.404;2023-04-25T06:16:27;100726.25;;;27.05;31.53
77739;BME280;66904;59.926;30.404;2023-04-25T06:21:28;100724.38;;;27.06;31.13
77739;BME280;66904;59.926;30.404;2023-04-25T06:26:28;100732.72;;;27.11;30.98
77739;BME280;66904;59.926;30.404;2023-04-25T06:31:29;100728.31;;;27.10;31.34
77739;BME280;66904;59.926;30.404;2023-04-25T06:36:32;100728.94;;;27.12;31.08
77739;BME280;66904;59.926;30.404;2023-04-25T06:41:33;100727.03;;;27.12;31.47
77739;BME280;66904;59.926;30.404;2023-04-25T06:46:33;100705.63;;;27.04;31.31
77739;BME280;66904;59.926;30.404;2023-04-25T06:51:34;100723.28;;;27.13;30.90
77739;BME280;66904;59.926;30.404;2023-04-25T06:56:34;100716.19;;;27.12;31.22
77739;BME280;66904;59.926;30.404;2023-04-25T07:01:35;100707.25;;;27.05;30.69
77739;BME280;66904;59.926;30.404;2023-04-25T07:06:35;100712.81;;;27.17;30.56
77739;BME280;66904;59.926;30.404;2023-04-25T07:11:42;100712.19;;;27.15;30.64
77739;BME280;66904;59.926;30.404;2023-04-25T07:16:42;100719.69;;;27.19;30.93
77739;BME280;66904;59.926;30.404;2023-04-25T07:21:43;100717.81;;;27.20;31.03
77739;BME280;66904;59.926;30.404;2023-04-25T07:26:44;100711.31;;;27.21;30.68
77739;BME280;66904;59.926;30.404;2023-04-25T07:31:45;100707.78;;;27.20;31.15
77739;BME280;66904;59.926;30.404;2023-04-25T07:36:45;100703.38;;;27.19;30.95
77739;BME280;66904;59.926;30.404;2023-04-25T07:41:46;100709.25;;;27.16;31.09
77739;BME280;66904;59.926;30.404;2023-04-25T07:46:46;100708.81;;;27.19;30.69
77739;BME280;66904;59.926;30.404;2023-04-25T07:51:47;100704.66;;;27.17;31.02
77739;BME280;66904;59.926;30.404;2023-04-25T07:56:47;100704.22;;;27.20;30.80
77739;BME280;66904;59.926;30.404;2023-04-25T08:07:35;100705.25;;;27.19;30.61
77739;BME280;66904;59.926;30.404;2023-04-25T08:12:42;100686.69;;;27.16;30.53
77739;BME280;66904;59.926;30.404;2023-04-25T08:17:42;100710.25;;;27.22;30.71
77739;BME280;66904;59.926;30.404;2023-04-25T08:27:54;100696.84;;;27.27;30.82
77739;BME280;66904;59.926;30.404;2023-04-25T08:32:55;100709.16;;;27.30;30.57
77739;BME280;66904;59.926;30.404;2023-04-25T08:37:55;100697.44;;;27.29;30.05
77739;BME280;66904;59.926;30.404;2023-04-25T08:43:00;100711.63;;;27.31;29.75
77739;BME280;66904;59.926;30.404;2023-04-25T08:48:03;100711.03;;;27.29;30.04
77739;BME280;66904;59.926;30.404;2023-04-25T08:53:09;100707.47;;;27.29;29.79
77739;BME280;66904;59.926;30.404;2023-04-25T08:58:10;100695.56;;;27.30;30.09
77739;BME280;66904;59.926;30.404;2023-04-25T09:03:11;100689.16;;;27.24;30.26
77739;BME280;66904;59.926;30.404;2023-04-25T09:08:12;100698.66;;;27.33;30.62
77739;BME280;66904;59.926;30.404;2023-04-25T09:13:14;100694.91;;;27.34;31.11
77739;BME280;66904;59.926;30.404;2023-04-25T09:23:23;100693.16;;;27.40;30.42
77739;BME280;66904;59.926;30.404;2023-04-25T09:28:25;100688.31;;;27.42;31.06
77739;BME280;66904;59.926;30.404;2023-04-25T09:33:29;100684.56;;;27.43;30.60
77739;BME280;66904;59.926;30.404;2023-04-25T09:38:31;100694.41;;;27.44;30.07
77739;BME280;66904;59.926;30.404;2023-04-25T09:43:32;100684.38;;;27.44;30.37
77739;BME280;66904;59.926;30.404;2023-04-25T09:48:33;100692.53;;;27.44;30.40
77739;BME280;66904;59.926;30.404;2023-04-25T09:53:39;100699.16;;;27.48;29.58
77739;BME280;66904;59.926;30.404;2023-04-25T09:58:40;100697.28;;;27.49;29.78
77739;BME280;66904;59.926;30.404;2023-04-25T10:03:41;100703.34;;;27.51;29.85
77739;BME280;66904;59.926;30.404;2023-04-25T10:08:43;100694.09;;;27.52;30.04
77739;BME280;66904;59.926;30.404;2023-04-25T10:13:44;100688.75;;;27.45;29.84
77739;BME280;66904;59.926;30.404;2023-04-25T10:18:45;100711.25;;;27.52;29.66
77739;BME280;66904;59.926;30.404;2023-04-25T10:23:46;100707.69;;;27.52;29.30
77739;BME280;66904;59.926;30.404;2023-04-25T10:29:01;100715.78;;;27.58;29.45
77739;BME280;66904;59.926;30.404;2023-04-25T10:34:02;100708.53;;;27.52;29.22
77739;BME280;66904;59.926;30.404;2023-04-25T10:39:06;100714.81;;;27.53;29.36
77739;BME280;66904;59.926;30.404;2023-04-25T10:44:09;100700.22;;;27.47;29.18
77739;BME280;66904;59.926;30.404;2023-04-25T10:49:10;100708.16;;;27.49;29.44
77739;BME280;66904;59.926;30.404;2023-04-25T10:54:11;100719.66;;;27.51;29.06
77739;BME280;66904;59.926;30.404;2023-04-25T10:59:17;100712.91;;;27.53;28.89
77739;BME280;66904;59.926;30.404;2023-04-25T11:04:21;100716.84;;;27.57;29.46
77739;BME280;66904;59.926;30.404;2023-04-25T11:09:23;100722.72;;;27.54;28.78
77739;BME280;66904;59.926;30.404;2023-04-25T11:14:25;100707.50;;;27.53;28.84
77739;BME280;66904;59.926;30.404;2023-04-25T11:19:26;100713.50;;;27.55;28.83
77739;BME280;66904;59.926;30.404;2023-04-25T11:24:31;100715.41;;;27.55;28.79
77739;BME280;66904;59.926;30.404;2023-04-25T11:29:34;100710.78;;;27.55;28.64
77739;BME280;66904;59.926;30.404;2023-04-25T11:34:35;100725.44;;;27.54;28.87
77739;BME280;66904;59.926;30.404;2023-04-25T11:39:35;100719.19;;;27.54;28.63
77739;BME280;66904;59.926;30.404;2023-04-25T11:44:38;100695.44;;;27.43;28.02
77739;BME280;66904;59.926;30.404;2023-04-25T11:49:39;100710.88;;;27.49;28.12
77739;BME280;66904;59.926;30.404;2023-04-25T11:54:40;100711.31;;;27.46;27.77
77739;BME280;66904;59.926;30.404;2023-04-25T11:59:41;100703.00;;;27.41;27.88
77739;BME280;66904;59.926;30.404;2023-04-25T12:04:41;100704.63;;;27.42;27.38
77739;BME280;66904;59.926;30.404;2023-04-25T12:09:42;100700.47;;;27.39;27.39
77739;BME280;66904;59.926;30.404;2023-04-25T12:14:46;100695.69;;;27.35;26.60
77739;BME280;66904;59.926;30.404;2023-04-25T12:19:48;100698.66;;;27.33;26.78
77739;BME280;66904;59.926;30.404;2023-04-25T12:24:49;100685.06;;;27.33;26.60
77739;BME280;66904;59.926;30.404;2023-04-25T12:29:51;100685.28;;;27.32;26.12
77739;BME280;66904;59.926;30.404;2023-04-25T12:34:52;100701.66;;;27.25;26.52
77739;BME280;66904;59.926;30.404;2023-04-25T12:39:53;100685.34;;;27.25;25.66
77739;BME280;66904;59.926;30.404;2023-04-25T12:44:53;100683.66;;;27.31;25.94
77739;BME280;66904;59.926;30.404;2023-04-25T12:49:53;100673.22;;;27.28;25.88
77739;BME280;66904;59.926;30.404;2023-04-25T12:54:54;100663.41;;;27.27;25.77
77739;BME280;66904;59.926;30.404;2023-04-25T12:59:55;100676.09;;;27.33;25.83
77739;BME280;66904;59.926;30.404;2023-04-25T13:04:55;100677.31;;;27.37;25.93
77739;BME280;66904;59.926;30.404;2023-04-25T13:09:56;100663.28;;;27.40;26.22
77739;BME280;66904;59.926;30.404;2023-04-25T13:14:56;100655.97;;;27.40;26.07
77739;BME280;66904;59.926;30.404;2023-04-25T13:19:57;100657.84;;;27.40;26.19
77739;BME280;66904;59.926;30.404;2023-04-25T13:24:57;100651.78;;;27.38;25.49
77739;BME280;66904;59.926;30.404;2023-04-25T13:29:58;100653.44;;;27.39;26.33
77739;BME280;66904;59.926;30.404;2023-04-25T13:34:59;100655.34;;;27.38;25.53
77739;BME280;66904;59.926;30.404;2023-04-25T13:40:04;100645.28;;;27.39;25.59
77739;BME280;66904;59.926;30.404;2023-04-25T13:45:06;100640.91;;;27.38;25.73
77739;BME280;66904;59.926;30.404;2023-04-25T13:50:07;100644.47;;;27.38;26.30
77739;BME280;66904;59.926;30.404;2023-04-25T13:55:08;100641.16;;;27.36;26.39
77739;BME280;66904;59.926;30.404;2023-04-25T14:00:10;100641.16;;;27.36;25.91
77739;BME280;66904;59.926;30.404;2023-04-25T14:05:10;100634.03;;;27.35;26.24
77739;BME280;66904;59.926;30.404;2023-04-25T14:10:11;100631.31;;;27.35;26.08
77739;BME280;66904;59.926;30.404;2023-04-25T14:15:11;100629.69;;;27.34;26.67
77739;BME280;66904;59.926;30.404;2023-04-25T14:20:12;100645.16;;;27.34;26.86
77739;BME280;66904;59.926;30.404;2023-04-25T14:25:13;100633.44;;;27.33;27.70
77739;BME280;66904;59.926;30.404;2023-04-25T14:30:13;100626.97;;;27.34;28.18
77739;BME280;66904;59.926;30.404;2023-04-25T14:35:14;100620.06;;;27.32;29.13
77739;BME280;66904;59.926;30.404;2023-04-25T14:40:15;100629.69;;;27.34;29.48
77739;BME280;66904;59.926;30.404;2023-04-25T14:45:17;100624.47;;;27.33;29.24
77739;BME280;66904;59.926;30.404;2023-04-25T14:50:17;100611.16;;;27.24;29.06
77739;BME280;66904;59.926;30.404;2023-04-25T14:55:18;100619.25;;;27.31;28.46
77739;BME280;66904;59.926;30.404;2023-04-25T15:00:19;100616.91;;;27.35;29.00
77739;BME280;66904;59.926;30.404;2023-04-25T15:05:20;100619.16;;;27.38;29.31
77739;BME280;66904;59.926;30.404;2023-04-25T15:10:22;100624.78;;;27.43;30.93
77739;BME280;66904;59.926;30.404;2023-04-25T15:15:22;100619.97;;;27.45;31.59
77739;BME280;66904;59.926;30.404;2023-04-25T15:20:24;100617.03;;;27.46;32.01
77739;BME280;66904;59.926;30.404;2023-04-25T15:25:25;100604.28;;;27.47;32.04
77739;BME280;66904;59.926;30.404;2023-04-25T15:30:25;100607.22;;;27.45;32.41
77739;BME280;66904;59.926;30.404;2023-04-25T15:35:26;100601.56;;;27.47;32.02
77739;BME280;66904;59.926;30.404;2023-04-25T15:40:27;100598.84;;;27.47;31.86
77739;BME280;66904;59.926;30.404;2023-04-25T15:45:47;100603.38;;;27.53;31.21
77739;BME280;66904;59.926;30.404;2023-04-25T15:50:47;100598.22;;;27.45;31.26
77739;BME280;66904;59.926;30.404;2023-04-25T15:55:48;100587.13;;;27.46;30.49
77739;BME280;66904;59.926;30.404;2023-04-25T16:00:48;100596.59;;;27.44;30.19
77739;BME280;66904;59.926;30.404;2023-04-25T16:05:52;100590.28;;;27.43;29.65
77739;BME280;66904;59.926;30.404;2023-04-25T16:10:53;100596.75;;;27.42;29.34
77739;BME280;66904;59.926;30.404;2023-04-25T16:15:53;100592.38;;;27.41;28.67
77739;BME280;66904;59.926;30.404;2023-04-25T16:20:54;100577.44;;;27.32;28.90
77739;BME280;66904;59.926;30.404;2023-04-25T16:25:54;100581.59;;;27.35;27.99
77739;BME280;66904;59.926;30.404;2023-04-25T16:30:55;100576.41;;;27.33;28.21
77739;BME280;66904;59.926;30.404;2023-04-25T16:35:55;100583.94;;;27.31;27.17
77739;BME280;66904;59.926;30.404;2023-04-25T16:40:56;100581.28;;;27.24;27.28
77739;BME280;66904;59.926;30.404;2023-04-25T16:45:57;100590.88;;;27.27;27.72
77739;BME280;66904;59.926;30.404;2023-04-25T16:50:58;100596.91;;;27.29;28.01
77739;BME280;66904;59.926;30.404;2023-04-25T16:55:59;100586.88;;;27.30;28.02
77739;BME280;66904;59.926;30.404;2023-04-25T17:01:00;100587.72;;;27.30;28.25
77739;BME280;66904;59.926;30.404;2023-04-25T17:06:01;100591.03;;;27.32;28.90
77739;BME280;66904;59.926;30.404;2023-04-25T17:11:02;100595.41;;;27.33;29.39
77739;BME280;66904;59.926;30.404;2023-04-25T17:16:03;100600.41;;;27.36;29.49
77739;BME280;66904;59.926;30.404;2023-04-25T17:21:03;100596.84;;;27.36;29.05
77739;BME280;66904;59.926;30.404;2023-04-25T17:26:05;100598.50;;;27.37;29.20
77739;BME280;66904;59.926;30.404;2023-04-25T17:31:06;100583.78;;;27.26;29.00
77739;BME280;66904;59.926;30.404;2023-04-25T17:36:07;100606.75;;;27.48;28.54
77739;BME280;66904;59.926;30.404;2023-04-25T17:41:08;100601.31;;;27.48;28.01
77739;BME280;66904;59.926;30.404;2023-04-25T17:46:09;100603.00;;;27.49;27.70
77739;BME280;66904;59.926;30.404;2023-04-25T17:51:10;100603.66;;;27.45;27.59
77739;BME280;66904;59.926;30.404;2023-04-25T17:56:10;100607.50;;;27.37;28.01
77739;BME280;66904;59.926;30.404;2023-04-25T18:01:11;100598.13;;;27.33;28.11
77739;BME280;66904;59.926;30.404;2023-04-25T18:06:12;100602.13;;;27.31;27.86
77739;BME280;66904;59.926;30.404;2023-04-25T18:11:12;100605.91;;;27.30;28.28
77739;BME280;66904;59.926;30.404;2023-04-25T18:16:13;100611.47;;;27.35;28.55
77739;BME280;66904;59.926;30.404;2023-04-25T18:21:13;100613.31;;;27.41;28.84
77739;BME280;66904;59.926;30.404;2023-04-25T18:26:14;100614.75;;;27.43;29.01
77739;BME280;66904;59.926;30.404;2023-04-25T18:31:15;100612.44;;;27.47;29.19
77739;BME280;66904;59.926;30.404;2023-04-25T18:36:16;100617.41;;;27.50;29.45
77739;BME280;66904;59.926;30.404;2023-04-25T18:41:16;100606.16;;;27.46;29.55
77739;BME280;66904;59.926;30.404;2023-04-25T18:46:17;100620.81;;;27.45;29.91
77739;BME280;66904;59.926;30.404;2023-04-25T18:51:21;100622.91;;;27.43;29.95
77739;BME280;66904;59.926;30.404;2023-04-25T18:56:23;100624.59;;;27.44;29.57
77739;BME280;66904;59.926;30.404;2023-04-25T19:01:24;100612.09;;;27.37;29.82
77739;BME280;66904;59.926;30.404;2023-04-25T19:06:26;100626.22;;;27.45;30.03
77739;BME280;66904;59.926;30.404;2023-04-25T19:11:28;100622.69;;;27.45;29.96
77739;BME280;66904;59.926;30.404;2023-04-25T19:16:29;100625.56;;;27.50;30.63
77739;BME280;66904;59.926;30.404;2023-04-25T19:21:34;100628.88;;;27.52;30.47
77739;BME280;66904;59.926;30.404;2023-04-25T19:26:35;100631.13;;;27.55;30.94
77739;BME280;66904;59.926;30.404;2023-04-25T19:31:37;100610.69;;;27.52;30.55
77739;BME280;66904;59.926;30.404;2023-04-25T19:36:39;100621.84;;;27.62;31.11
77739;BME280;66904;59.926;30.404;2023-04-25T19:41:40;100618.94;;;27.64;31.00
77739;BME280;66904;59.926;30.404;2023-04-25T19:46:41;100619.53;;;27.66;31.14
77739;BME280;66904;59.926;30.404;2023-04-25T19:51:44;100622.81;;;27.68;31.07
77739;BME280;66904;59.926;30.404;2023-04-25T19:56:45;100609.84;;;27.70;31.63
77739;BME280;66904;59.926;30.404;2023-04-25T20:01:45;100619.81;;;27.76;30.90
77739;BME280;66904;59.926;30.404;2023-04-25T20:06:46;100616.50;;;27.74;31.24
77739;BME280;66904;59.926;30.404;2023-04-25T20:11:46;100615.22;;;27.77;31.42
77739;BME280;66904;59.926;30.404;2023-04-25T20:16:47;100614.75;;;27.80;31.80
77739;BME280;66904;59.926;30.404;2023-04-25T20:21:48;100609.91;;;27.82;31.73
77739;BME280;66904;59.926;30.404;2023-04-25T20:26:48;100619.50;;;27.84;32.14
77739;BME280;66904;59.926;30.404;2023-04-25T20:31:49;100616.56;;;27.86;31.40
77739;BME280;66904;59.926;30.404;2023-04-25T20:36:50;100607.34;;;27.87;31.71
77739;BME280;66904;59.926;30.404;2023-04-25T20:41:52;100615.88;;;27.90;31.45
77739;BME280;66904;59.926;30.404;2023-04-25T20:46:52;100609.34;;;27.91;31.23
77739;BME280;66904;59.926;30.404;2023-04-25T20:51:53;100593.03;;;27.91;31.24
77739;BME280;66904;59.926;30.404;2023-04-25T20:56:53;100611.84;;;27.93;30.94
77739;BME280;66904;59.926;30.404;2023-04-25T21:01:55;100598.00;;;27.94;31.10
